sensor_id;sensor_type;location;lat;lon;timestamp;P1;durP1;ratioP1;P2;durP2;ratioP2
4674;SDS011;2351;50.812;12.872;2023-09-07T00:00:39;13.20;;;8.03;;
4674;SDS011;2351;50.812;12.872;2023-09-07T00:03:11;7.90;;;6.83;;
4674;SDS011;2351;50.812;12.872;2023-09-07T00:05:44;10.57;;;6.20;;
4674;SDS011;2351;50.812;12.872;2023-09-07T00:08:16;9.80;;;6.70;;
4674;SDS011;2351;50.812;12.872;2023-09-07T00:10:49;10.87;;;7.83;;
4674;SDS011;2351;50.812;12.872;2023-09-07T00:13:21;9.53;;;6.00;;
4674;SDS011;2351;50.812;12.872;2023-09-07T00:15:52;8.70;;;7.57;;
4674;SDS011;2351;50.812;12.872;2023-09-07T00:18:24;16.10;;;9.53;;
4674;SDS011;2351;50.812;12.872;2023-09-07T00:20:56;14.13;;;11.20;;
4674;SDS011;2351;50.812;12.872;2023-09-07T00:23:28;15.63;;;10.27;;
4674;SDS011;2351;50.812;12.872;2023-09-07T00:26:01;18.10;;;10.50;;
4674;SDS011;2351;50.812;12.872;2023-09-07T00:28:33;17.00;;;10.07;;
4674;SDS011;2351;50.812;12.872;2023-09-07T00:31:05;15.10;;;10.50;;
4674;SDS011;2351;50.812;12.872;2023-09-07T00:33:37;14.80;;;9.33;;
4674;SDS011;2351;50.812;12.872;2023-09-07T00:36:08;12.73;;;8.30;;
4674;SDS011;2351;50.812;12.872;2023-09-07T00:38:40;13.50;;;8.93;;
4674;SDS011;2351;50.812;12.872;2023-09-07T00:41:13;11.20;;;8.50;;
4674;SDS011;2351;50.812;12.872;2023-09-07T00:43:45;13.33;;;8.47;;
4674;SDS011;2351;50.812;12.872;2023-09-07T00:46:17;12.60;;;7.70;;
4674;SDS011;2351;50.812;12.872;2023-09-07T00:48:48;10.50;;;7.57;;
4674;SDS011;2351;50.812;12.872;2023-09-07T00:51:21;9.20;;;7.00;;
4674;SDS011;2351;50.812;12.872;2023-09-07T00:53:53;11.57;;;7.10;;
4674;SDS011;2351;50.812;12.872;2023-09-07T00:56:26;10.07;;;7.70;;
4674;SDS011;2351;50.812;12.872;2023-09-07T00:58:58;8.80;;;6.80;;
4674;SDS011;2351;50.812;12.872;2023-09-07T01:01:30;10.33;;;7.67;;
4674;SDS011;2351;50.812;12.872;2023-09-07T01:04:03;10.10;;;6.77;;
4674;SDS011;2351;50.812;12.872;2023-09-07T01:06:37;8.47;;;7.37;;
4674;SDS011;2351;50.812;12.872;2023-09-07T01:09:11;10.90;;;7.40;;
4674;SDS011;2351;50.812;12.872;2023-09-07T01:11:49;9.60;;;7.33;;
4674;SDS011;2351;50.812;12.872;2023-09-07T01:14:22;9.50;;;7.07;;
4674;SDS011;2351;50.812;12.872;2023-09-07T01:16:54;9.03;;;7.10;;
4674;SDS011;2351;50.812;12.872;2023-09-07T01:19:26;7.50;;;6.43;;
4674;SDS011;2351;50.812;12.872;2023-09-07T01:21:59;9.83;;;7.40;;
4674;SDS011;2351;50.812;12.872;2023-09-07T01:24:31;7.50;;;6.63;;
4674;SDS011;2351;50.812;12.872;2023-09-07T01:27:05;10.37;;;7.67;;
4674;SDS011;2351;50.812;12.872;2023-09-07T01:29:37;14.83;;;7.90;;
4674;SDS011;2351;50.812;12.872;2023-09-07T01:32:09;13.00;;;7.40;;
4674;SDS011;2351;50.812;12.872;2023-09-07T01:34:41;9.90;;;7.77;;
4674;SDS011;2351;50.812;12.872;2023-09-07T01:37:14;10.20;;;7.27;;
4674;SDS011;2351;50.812;12.872;2023-09-07T01:39:45;11.13;;;7.03;;
4674;SDS011;2351;50.812;12.872;2023-09-07T01:42:18;11.10;;;7.73;;
4674;SDS011;2351;50.812;12.872;2023-09-07T01:44:51;8.70;;;7.30;;
4674;SDS011;2351;50.812;12.872;2023-09-07T01:47:23;10.77;;;7.73;;
4674;SDS011;2351;50.812;12.872;2023-09-07T01:49:55;14.43;;;8.27;;
4674;SDS011;2351;50.812;12.872;2023-09-07T01:52:28;12.83;;;8.13;;
4674;SDS011;2351;50.812;12.872;2023-09-07T01:55:01;9.87;;;8.30;;
4674;SDS011;2351;50.812;12.872;2023-09-07T01:57:33;8.53;;;7.63;;
4674;SDS011;2351;50.812;12.872;2023-09-07T02:00:05;11.87;;;6.80;;
4674;SDS011;2351;50.812;12.872;2023-09-07T02:02:38;9.03;;;7.00;;
4674;SDS011;2351;50.812;12.872;2023-09-07T02:05:09;10.13;;;7.50;;
4674;SDS011;2351;50.812;12.872;2023-09-07T02:07:44;10.70;;;7.10;;
4674;SDS011;2351;50.812;12.872;2023-09-07T02:10:15;13.80;;;7.23;;
4674;SDS011;2351;50.812;12.872;2023-09-07T02:12:47;9.17;;;7.60;;
4674;SDS011;2351;50.812;12.872;2023-09-07T02:15:19;11.30;;;7.10;;
4674;SDS011;2351;50.812;12.872;2023-09-07T02:17:50;11.07;;;7.57;;
4674;SDS011;2351;50.812;12.872;2023-09-07T02:20:22;10.00;;;7.53;;
4674;SDS011;2351;50.812;12.872;2023-09-07T02:22:58;9.00;;;7.00;;
4674;SDS011;2351;50.812;12.872;2023-09-07T02:25:31;9.63;;;7.20;;
4674;SDS011;2351;50.812;12.872;2023-09-07T02:28:02;9.83;;;7.77;;
4674;SDS011;2351;50.812;12.872;2023-09-07T02:30:35;8.63;;;7.63;;
4674;SDS011;2351;50.812;12.872;2023-09-07T02:33:07;8.73;;;7.43;;
4674;SDS011;2351;50.812;12.872;2023-09-07T02:35:39;11.60;;;8.07;;
4674;SDS011;2351;50.812;12.872;2023-09-07T02:38:12;13.00;;;7.50;;
4674;SDS011;2351;50.812;12.872;2023-09-07T02:40:44;13.10;;;7.93;;
4674;SDS011;2351;50.812;12.872;2023-09-07T02:43:15;9.83;;;7.27;;
4674;SDS011;2351;50.812;12.872;2023-09-07T02:45:48;8.60;;;7.37;;
4674;SDS011;2351;50.812;12.872;2023-09-07T02:48:20;10.63;;;7.57;;
4674;SDS011;2351;50.812;12.872;2023-09-07T02:50:51;12.20;;;7.57;;
4674;SDS011;2351;50.812;12.872;2023-09-07T02:53:25;11.80;;;7.30;;
4674;SDS011;2351;50.812;12.872;2023-09-07T02:55:57;12.93;;;7.20;;
4674;SDS011;2351;50.812;12.872;2023-09-07T02:58:28;11.33;;;8.67;;
4674;SDS011;2351;50.812;12.872;2023-09-07T03:01:00;10.60;;;8.40;;
4674;SDS011;2351;50.812;12.872;2023-09-07T03:03:38;10.90;;;7.27;;
4674;SDS011;2351;50.812;12.872;2023-09-07T03:06:13;10.63;;;7.80;;
4674;SDS011;2351;50.812;12.872;2023-09-07T03:08:47;10.03;;;7.13;;
4674;SDS011;2351;50.812;12.872;2023-09-07T03:11:19;21.13;;;7.30;;
4674;SDS011;2351;50.812;12.872;2023-09-07T03:13:51;17.50;;;7.80;;
4674;SDS011;2351;50.812;12.872;2023-09-07T03:16:23;12.00;;;7.83;;
4674;SDS011;2351;50.812;12.872;2023-09-07T03:18:54;10.77;;;8.17;;
4674;SDS011;2351;50.812;12.872;2023-09-07T03:21:26;14.63;;;8.10;;
4674;SDS011;2351;50.812;12.872;2023-09-07T03:24:00;12.43;;;7.70;;
4674;SDS011;2351;50.812;12.872;2023-09-07T03:26:32;12.17;;;8.60;;
4674;SDS011;2351;50.812;12.872;2023-09-07T03:29:05;8.83;;;7.40;;
4674;SDS011;2351;50.812;12.872;2023-09-07T03:31:36;10.93;;;7.00;;
4674;SDS011;2351;50.812;12.872;2023-09-07T03:34:08;9.87;;;7.50;;
4674;SDS011;2351;50.812;12.872;2023-09-07T03:36:40;10.17;;;7.90;;
4674;SDS011;2351;50.812;12.872;2023-09-07T03:39:13;11.87;;;7.60;;
4674;SDS011;2351;50.812;12.872;2023-09-07T03:41:44;17.77;;;8.30;;
4674;SDS011;2351;50.812;12.872;2023-09-07T03:44:16;13.90;;;8.20;;
4674;SDS011;2351;50.812;12.872;2023-09-07T03:46:48;14.50;;;8.37;;
4674;SDS011;2351;50.812;12.872;2023-09-07T03:49:19;12.53;;;8.30;;
4674;SDS011;2351;50.812;12.872;2023-09-07T03:51:51;11.47;;;7.60;;
4674;SDS011;2351;50.812;12.872;2023-09-07T03:54:24;10.00;;;8.30;;
4674;SDS011;2351;50.812;12.872;2023-09-07T03:56:56;11.20;;;8.17;;
4674;SDS011;2351;50.812;12.872;2023-09-07T03:59:27;12.43;;;8.03;;
4674;SDS011;2351;50.812;12.872;2023-09-07T04:01:59;12.93;;;8.73;;
4674;SDS011;2351;50.812;12.872;2023-09-07T04:04:31;13.00;;;8.13;;
4674;SDS011;2351;50.812;12.872;2023-09-07T04:07:03;19.70;;;8.87;;
4674;SDS011;2351;50.812;12.872;2023-09-07T04:09:36;12.03;;;8.57;;
4674;SDS011;2351;50.812;12.872;2023-09-07T04:12:08;12.10;;;7.27;;
4674;SDS011;2351;50.812;12.872;2023-09-07T04:14:40;11.33;;;7.80;;
4674;SDS011;2351;50.812;12.872;2023-09-07T04:17:13;11.23;;;8.60;;
4674;SDS011;2351;50.812;12.872;2023-09-07T04:19:45;12.87;;;8.43;;
4674;SDS011;2351;50.812;12.872;2023-09-07T04:22:16;9.07;;;6.90;;
4674;SDS011;2351;50.812;12.872;2023-09-07T04:24:49;10.17;;;8.00;;
4674;SDS011;2351;50.812;12.872;2023-09-07T04:27:21;12.53;;;7.47;;
4674;SDS011;2351;50.812;12.872;2023-09-07T04:29:53;16.13;;;9.50;;
4674;SDS011;2351;50.812;12.872;2023-09-07T04:32:25;18.50;;;10.60;;
4674;SDS011;2351;50.812;12.872;2023-09-07T04:34:56;21.13;;;9.30;;
4674;SDS011;2351;50.812;12.872;2023-09-07T04:37:29;12.57;;;7.70;;
4674;SDS011;2351;50.812;12.872;2023-09-07T04:40:02;11.77;;;7.87;;
4674;SDS011;2351;50.812;12.872;2023-09-07T04:42:37;13.80;;;8.77;;
4674;SDS011;2351;50.812;12.872;2023-09-07T04:45:09;14.10;;;8.70;;
4674;SDS011;2351;50.812;12.872;2023-09-07T04:47:41;14.47;;;10.13;;
4674;SDS011;2351;50.812;12.872;2023-09-07T04:50:13;12.43;;;9.00;;
4674;SDS011;2351;50.812;12.872;2023-09-07T04:52:44;10.67;;;7.53;;
4674;SDS011;2351;50.812;12.872;2023-09-07T04:55:18;16.10;;;8.77;;
4674;SDS011;2351;50.812;12.872;2023-09-07T04:57:49;13.80;;;8.93;;
4674;SDS011;2351;50.812;12.872;2023-09-07T05:00:21;12.80;;;8.67;;
4674;SDS011;2351;50.812;12.872;2023-09-07T05:02:53;16.50;;;9.67;;
4674;SDS011;2351;50.812;12.872;2023-09-07T05:05:24;14.77;;;9.20;;
4674;SDS011;2351;50.812;12.872;2023-09-07T05:07:56;15.63;;;9.70;;
4674;SDS011;2351;50.812;12.872;2023-09-07T05:10:29;17.90;;;9.47;;
4674;SDS011;2351;50.812;12.872;2023-09-07T05:13:01;12.63;;;9.03;;
4674;SDS011;2351;50.812;12.872;2023-09-07T05:15:33;12.00;;;9.17;;
4674;SDS011;2351;50.812;12.872;2023-09-07T05:18:05;15.70;;;10.00;;
4674;SDS011;2351;50.812;12.872;2023-09-07T05:20:36;15.67;;;9.17;;
4674;SDS011;2351;50.812;12.872;2023-09-07T05:23:08;16.53;;;10.27;;
4674;SDS011;2351;50.812;12.872;2023-09-07T05:25:44;14.20;;;10.27;;
4674;SDS011;2351;50.812;12.872;2023-09-07T05:28:16;13.50;;;10.27;;
4674;SDS011;2351;50.812;12.872;2023-09-07T05:30:49;16.53;;;10.10;;
4674;SDS011;2351;50.812;12.872;2023-09-07T05:33:21;18.10;;;10.13;;
4674;SDS011;2351;50.812;12.872;2023-09-07T05:35:52;17.23;;;10.30;;
4674;SDS011;2351;50.812;12.872;2023-09-07T05:38:24;22.23;;;10.00;;
4674;SDS011;2351;50.812;12.872;2023-09-07T05:40:57;22.03;;;10.77;;
4674;SDS011;2351;50.812;12.872;2023-09-07T05:43:29;13.30;;;9.77;;
4674;SDS011;2351;50.812;12.872;2023-09-07T05:46:00;17.93;;;10.47;;
4674;SDS011;2351;50.812;12.872;2023-09-07T05:48:32;17.13;;;11.33;;
4674;SDS011;2351;50.812;12.872;2023-09-07T05:51:04;22.10;;;11.63;;
4674;SDS011;2351;50.812;12.872;2023-09-07T05:53:36;16.93;;;10.43;;
4674;SDS011;2351;50.812;12.872;2023-09-07T05:56:09;15.73;;;10.43;;
4674;SDS011;2351;50.812;12.872;2023-09-07T05:58:40;15.90;;;10.23;;
4674;SDS011;2351;50.812;12.872;2023-09-07T06:01:12;15.07;;;10.77;;
4674;SDS011;2351;50.812;12.872;2023-09-07T06:03:44;30.03;;;11.63;;
4674;SDS011;2351;50.812;12.872;2023-09-07T06:06:15;21.37;;;11.50;;
4674;SDS011;2351;50.812;12.872;2023-09-07T06:08:47;19.90;;;11.10;;
4674;SDS011;2351;50.812;12.872;2023-09-07T06:11:20;18.10;;;10.83;;
4674;SDS011;2351;50.812;12.872;2023-09-07T06:13:52;17.57;;;10.03;;
4674;SDS011;2351;50.812;12.872;2023-09-07T06:16:30;17.10;;;9.90;;
4674;SDS011;2351;50.812;12.872;2023-09-07T06:19:01;16.53;;;10.20;;
4674;SDS011;2351;50.812;12.872;2023-09-07T06:21:33;14.60;;;10.10;;
4674;SDS011;2351;50.812;12.872;2023-09-07T06:24:05;20.97;;;10.97;;
4674;SDS011;2351;50.812;12.872;2023-09-07T06:26:39;15.60;;;9.23;;
4674;SDS011;2351;50.812;12.872;2023-09-07T06:29:10;13.00;;;10.20;;
4674;SDS011;2351;50.812;12.872;2023-09-07T06:31:42;18.43;;;10.53;;
4674;SDS011;2351;50.812;12.872;2023-09-07T06:34:14;13.93;;;10.13;;
4674;SDS011;2351;50.812;12.872;2023-09-07T06:36:45;34.83;;;10.67;;
4674;SDS011;2351;50.812;12.872;2023-09-07T06:39:17;20.70;;;9.50;;
4674;SDS011;2351;50.812;12.872;2023-09-07T06:41:50;11.60;;;8.57;;
4674;SDS011;2351;50.812;12.872;2023-09-07T06:44:22;20.87;;;9.73;;
4674;SDS011;2351;50.812;12.872;2023-09-07T06:46:54;13.57;;;8.30;;
4674;SDS011;2351;50.812;12.872;2023-09-07T06:49:26;20.53;;;9.17;;
4674;SDS011;2351;50.812;12.872;2023-09-07T06:51:59;14.63;;;8.83;;
4674;SDS011;2351;50.812;12.872;2023-09-07T06:54:32;18.00;;;8.40;;
4674;SDS011;2351;50.812;12.872;2023-09-07T06:57:07;15.27;;;8.10;;
4674;SDS011;2351;50.812;12.872;2023-09-07T06:59:39;11.40;;;7.80;;
4674;SDS011;2351;50.812;12.872;2023-09-07T07:02:10;13.47;;;8.47;;
4674;SDS011;2351;50.812;12.872;2023-09-07T07:04:42;21.70;;;8.13;;
4674;SDS011;2351;50.812;12.872;2023-09-07T07:07:16;11.37;;;8.40;;
4674;SDS011;2351;50.812;12.872;2023-09-07T07:09:48;16.23;;;7.03;;
4674;SDS011;2351;50.812;12.872;2023-09-07T07:12:22;9.40;;;7.47;;
4674;SDS011;2351;50.812;12.872;2023-09-07T07:14:54;15.10;;;6.90;;
4674;SDS011;2351;50.812;12.872;2023-09-07T07:17:25;12.23;;;7.40;;
4674;SDS011;2351;50.812;12.872;2023-09-07T07:19:57;7.93;;;7.10;;
4674;SDS011;2351;50.812;12.872;2023-09-07T07:22:29;10.60;;;7.37;;
4674;SDS011;2351;50.812;12.872;2023-09-07T07:25:02;8.23;;;6.53;;
4674;SDS011;2351;50.812;12.872;2023-09-07T07:27:37;9.53;;;6.20;;
4674;SDS011;2351;50.812;12.872;2023-09-07T07:30:09;10.57;;;7.17;;
4674;SDS011;2351;50.812;12.872;2023-09-07T07:32:40;7.00;;;5.90;;
4674;SDS011;2351;50.812;12.872;2023-09-07T07:35:12;7.57;;;6.60;;
4674;SDS011;2351;50.812;12.872;2023-09-07T07:37:44;9.60;;;6.40;;
4674;SDS011;2351;50.812;12.872;2023-09-07T07:40:16;13.00;;;6.37;;
4674;SDS011;2351;50.812;12.872;2023-09-07T07:42:51;8.70;;;6.70;;
4674;SDS011;2351;50.812;12.872;2023-09-07T07:45:23;11.40;;;6.40;;
4674;SDS011;2351;50.812;12.872;2023-09-07T07:47:55;7.03;;;6.30;;
4674;SDS011;2351;50.812;12.872;2023-09-07T07:50:27;7.97;;;6.10;;
4674;SDS011;2351;50.812;12.872;2023-09-07T07:52:58;8.10;;;6.27;;
4674;SDS011;2351;50.812;12.872;2023-09-07T07:55:30;6.47;;;5.77;;
4674;SDS011;2351;50.812;12.872;2023-09-07T07:58:03;7.03;;;6.33;;
4674;SDS011;2351;50.812;12.872;2023-09-07T08:00:36;11.13;;;5.60;;
4674;SDS011;2351;50.812;12.872;2023-09-07T08:03:08;7.60;;;5.17;;
4674;SDS011;2351;50.812;12.872;2023-09-07T08:05:39;14.83;;;6.47;;
4674;SDS011;2351;50.812;12.872;2023-09-07T08:08:12;8.27;;;5.93;;
4674;SDS011;2351;50.812;12.872;2023-09-07T08:10:44;11.70;;;6.33;;
4674;SDS011;2351;50.812;12.872;2023-09-07T08:13:17;10.80;;;6.23;;
4674;SDS011;2351;50.812;12.872;2023-09-07T08:15:50;8.50;;;5.87;;
4674;SDS011;2351;50.812;12.872;2023-09-07T08:18:21;9.77;;;6.60;;
4674;SDS011;2351;50.812;12.872;2023-09-07T08:20:53;10.33;;;6.33;;
4674;SDS011;2351;50.812;12.872;2023-09-07T08:23:25;8.93;;;5.40;;
4674;SDS011;2351;50.812;12.872;2023-09-07T08:25:57;8.27;;;5.37;;
4674;SDS011;2351;50.812;12.872;2023-09-07T08:28:31;5.80;;;5.20;;
4674;SDS011;2351;50.812;12.872;2023-09-07T08:31:03;9.03;;;5.50;;
4674;SDS011;2351;50.812;12.872;2023-09-07T08:33:35;6.67;;;5.93;;
4674;SDS011;2351;50.812;12.872;2023-09-07T08:36:10;10.67;;;5.63;;
4674;SDS011;2351;50.812;12.872;2023-09-07T08:38:42;6.43;;;5.80;;
4674;SDS011;2351;50.812;12.872;2023-09-07T08:41:13;7.50;;;6.10;;
4674;SDS011;2351;50.812;12.872;2023-09-07T08:43:47;7.90;;;5.57;;
4674;SDS011;2351;50.812;12.872;2023-09-07T08:46:23;14.30;;;5.53;;
4674;SDS011;2351;50.812;12.872;2023-09-07T08:48:55;5.40;;;4.90;;
4674;SDS011;2351;50.812;12.872;2023-09-07T08:51:30;7.43;;;5.20;;
4674;SDS011;2351;50.812;12.872;2023-09-07T08:54:02;5.10;;;4.50;;
4674;SDS011;2351;50.812;12.872;2023-09-07T08:56:34;9.47;;;4.97;;
4674;SDS011;2351;50.812;12.872;2023-09-07T08:59:08;6.80;;;4.60;;
4674;SDS011;2351;50.812;12.872;2023-09-07T09:01:39;6.33;;;4.40;;
4674;SDS011;2351;50.812;12.872;2023-09-07T09:04:11;7.60;;;4.80;;
4674;SDS011;2351;50.812;12.872;2023-09-07T09:06:43;7.23;;;4.23;;
4674;SDS011;2351;50.812;12.872;2023-09-07T09:09:21;5.97;;;3.90;;
4674;SDS011;2351;50.812;12.872;2023-09-07T09:11:54;6.53;;;4.00;;
4674;SDS011;2351;50.812;12.872;2023-09-07T09:14:29;6.73;;;4.80;;
4674;SDS011;2351;50.812;12.872;2023-09-07T09:17:02;5.13;;;4.60;;
4674;SDS011;2351;50.812;12.872;2023-09-07T09:19:34;12.03;;;4.50;;
4674;SDS011;2351;50.812;12.872;2023-09-07T09:22:07;6.80;;;4.50;;
4674;SDS011;2351;50.812;12.872;2023-09-07T09:24:39;4.23;;;3.90;;
4674;SDS011;2351;50.812;12.872;2023-09-07T09:27:11;6.40;;;4.47;;
4674;SDS011;2351;50.812;12.872;2023-09-07T09:29:44;6.23;;;4.33;;
4674;SDS011;2351;50.812;12.872;2023-09-07T09:32:16;5.10;;;4.20;;
4674;SDS011;2351;50.812;12.872;2023-09-07T09:34:47;7.77;;;4.13;;
4674;SDS011;2351;50.812;12.872;2023-09-07T09:37:19;6.33;;;5.67;;
4674;SDS011;2351;50.812;12.872;2023-09-07T09:39:53;3.57;;;3.23;;
4674;SDS011;2351;50.812;12.872;2023-09-07T09:42:26;4.37;;;3.67;;
4674;SDS011;2351;50.812;12.872;2023-09-07T09:45:00;6.97;;;3.67;;
4674;SDS011;2351;50.812;12.872;2023-09-07T09:47:35;5.63;;;4.20;;
4674;SDS011;2351;50.812;12.872;2023-09-07T09:50:10;7.23;;;3.83;;
4674;SDS011;2351;50.812;12.872;2023-09-07T09:52:42;7.20;;;3.70;;
4674;SDS011;2351;50.812;12.872;2023-09-07T09:55:14;7.27;;;4.03;;
4674;SDS011;2351;50.812;12.872;2023-09-07T09:57:46;7.23;;;4.27;;
4674;SDS011;2351;50.812;12.872;2023-09-07T10:00:21;9.67;;;6.70;;
4674;SDS011;2351;50.812;12.872;2023-09-07T10:03:01;5.50;;;3.80;;
4674;SDS011;2351;50.812;12.872;2023-09-07T10:05:37;6.37;;;3.50;;
4674;SDS011;2351;50.812;12.872;2023-09-07T10:08:13;7.00;;;3.80;;
4674;SDS011;2351;50.812;12.872;2023-09-07T10:10:46;4.00;;;3.60;;
4674;SDS011;2351;50.812;12.872;2023-09-07T10:13:28;4.40;;;4.00;;
4674;SDS011;2351;50.812;12.872;2023-09-07T10:16:02;4.10;;;3.70;;
4674;SDS011;2351;50.812;12.872;2023-09-07T10:18:37;6.30;;;3.80;;
4674;SDS011;2351;50.812;12.872;2023-09-07T10:21:10;4.50;;;3.67;;
4674;SDS011;2351;50.812;12.872;2023-09-07T10:23:42;6.10;;;3.70;;
4674;SDS011;2351;50.812;12.872;2023-09-07T10:26:15;7.47;;;3.70;;
4674;SDS011;2351;50.812;12.872;2023-09-07T10:28:58;7.10;;;3.10;;
4674;SDS011;2351;50.812;12.872;2023-09-07T10:31:31;4.03;;;3.63;;
4674;SDS011;2351;50.812;12.872;2023-09-07T10:34:09;5.80;;;3.40;;
4674;SDS011;2351;50.812;12.872;2023-09-07T10:36:42;3.83;;;3.47;;
4674;SDS011;2351;50.812;12.872;2023-09-07T10:39:14;4.10;;;3.40;;
4674;SDS011;2351;50.812;12.872;2023-09-07T10:41:45;5.13;;;3.53;;
4674;SDS011;2351;50.812;12.872;2023-09-07T10:44:24;6.57;;;3.93;;
4674;SDS011;2351;50.812;12.872;2023-09-07T10:46:58;4.40;;;3.30;;
4674;SDS011;2351;50.812;12.872;2023-09-07T10:49:31;7.07;;;3.40;;
4674;SDS011;2351;50.812;12.872;2023-09-07T10:52:03;3.70;;;3.00;;
4674;SDS011;2351;50.812;12.872;2023-09-07T10:54:35;5.10;;;3.87;;
4674;SDS011;2351;50.812;12.872;2023-09-07T10:57:07;7.03;;;3.60;;
4674;SDS011;2351;50.812;12.872;2023-09-07T10:59:44;4.67;;;3.67;;
4674;SDS011;2351;50.812;12.872;2023-09-07T11:02:17;4.30;;;2.83;;
4674;SDS011;2351;50.812;12.872;2023-09-07T11:04:48;3.13;;;2.83;;
4674;SDS011;2351;50.812;12.872;2023-09-07T11:07:20;4.43;;;3.83;;
4674;SDS011;2351;50.812;12.872;2023-09-07T11:09:52;4.10;;;3.50;;
4674;SDS011;2351;50.812;12.872;2023-09-07T11:12:24;4.03;;;2.67;;
4674;SDS011;2351;50.812;12.872;2023-09-07T11:14:56;3.47;;;3.17;;
4674;SDS011;2351;50.812;12.872;2023-09-07T11:17:30;4.87;;;3.77;;
4674;SDS011;2351;50.812;12.872;2023-09-07T11:20:03;3.20;;;2.90;;
4674;SDS011;2351;50.812;12.872;2023-09-07T11:22:37;7.43;;;4.97;;
4674;SDS011;2351;50.812;12.872;2023-09-07T11:25:10;5.47;;;3.60;;
4674;SDS011;2351;50.812;12.872;2023-09-07T11:27:41;6.00;;;3.87;;
4674;SDS011;2351;50.812;12.872;2023-09-07T11:30:13;5.00;;;3.83;;
4674;SDS011;2351;50.812;12.872;2023-09-07T11:32:46;5.50;;;3.80;;
4674;SDS011;2351;50.812;12.872;2023-09-07T11:35:18;3.73;;;3.33;;
4674;SDS011;2351;50.812;12.872;2023-09-07T11:37:51;3.87;;;3.57;;
4674;SDS011;2351;50.812;12.872;2023-09-07T11:40:23;4.90;;;4.07;;
4674;SDS011;2351;50.812;12.872;2023-09-07T11:42:55;3.87;;;3.50;;
4674;SDS011;2351;50.812;12.872;2023-09-07T11:45:26;8.03;;;3.60;;
4674;SDS011;2351;50.812;12.872;2023-09-07T11:47:59;5.43;;;3.63;;
4674;SDS011;2351;50.812;12.872;2023-09-07T11:50:31;5.83;;;2.90;;
4674;SDS011;2351;50.812;12.872;2023-09-07T11:53:03;6.90;;;3.70;;
4674;SDS011;2351;50.812;12.872;2023-09-07T11:55:35;10.27;;;3.67;;
4674;SDS011;2351;50.812;12.872;2023-09-07T11:58:07;7.53;;;3.83;;
4674;SDS011;2351;50.812;12.872;2023-09-07T12:00:39;4.33;;;3.47;;
4674;SDS011;2351;50.812;12.872;2023-09-07T12:03:13;4.60;;;3.77;;
4674;SDS011;2351;50.812;12.872;2023-09-07T12:05:45;3.33;;;3.00;;
4674;SDS011;2351;50.812;12.872;2023-09-07T12:08:16;3.17;;;2.87;;
4674;SDS011;2351;50.812;12.872;2023-09-07T12:10:48;3.53;;;3.23;;
4674;SDS011;2351;50.812;12.872;2023-09-07T12:13:20;3.57;;;3.23;;
4674;SDS011;2351;50.812;12.872;2023-09-07T12:15:51;5.10;;;3.30;;
4674;SDS011;2351;50.812;12.872;2023-09-07T12:18:25;9.40;;;3.30;;
4674;SDS011;2351;50.812;12.872;2023-09-07T12:20:56;4.00;;;3.70;;
4674;SDS011;2351;50.812;12.872;2023-09-07T12:23:28;4.70;;;3.07;;
4674;SDS011;2351;50.812;12.872;2023-09-07T12:26:00;8.17;;;3.40;;
4674;SDS011;2351;50.812;12.872;2023-09-07T12:28:34;5.73;;;3.37;;
4674;SDS011;2351;50.812;12.872;2023-09-07T12:31:06;5.40;;;3.73;;
4674;SDS011;2351;50.812;12.872;2023-09-07T12:33:39;5.60;;;3.10;;
4674;SDS011;2351;50.812;12.872;2023-09-07T12:36:11;4.67;;;3.33;;
4674;SDS011;2351;50.812;12.872;2023-09-07T12:38:43;9.00;;;3.30;;
4674;SDS011;2351;50.812;12.872;2023-09-07T12:41:14;4.23;;;2.57;;
4674;SDS011;2351;50.812;12.872;2023-09-07T12:43:46;3.67;;;3.00;;
4674;SDS011;2351;50.812;12.872;2023-09-07T12:46:18;9.17;;;3.27;;
4674;SDS011;2351;50.812;12.872;2023-09-07T12:48:51;2.77;;;2.57;;
4674;SDS011;2351;50.812;12.872;2023-09-07T12:51:23;3.90;;;3.10;;
4674;SDS011;2351;50.812;12.872;2023-09-07T12:53:55;3.70;;;3.03;;
4674;SDS011;2351;50.812;12.872;2023-09-07T12:56:27;3.00;;;2.70;;
4674;SDS011;2351;50.812;12.872;2023-09-07T12:58:58;8.37;;;4.13;;
4674;SDS011;2351;50.812;12.872;2023-09-07T13:01:30;8.07;;;3.60;;
4674;SDS011;2351;50.812;12.872;2023-09-07T13:04:04;8.03;;;3.80;;
4674;SDS011;2351;50.812;12.872;2023-09-07T13:06:36;3.30;;;3.00;;
4674;SDS011;2351;50.812;12.872;2023-09-07T13:09:08;10.53;;;3.07;;
4674;SDS011;2351;50.812;12.872;2023-09-07T13:11:41;3.10;;;2.83;;
4674;SDS011;2351;50.812;12.872;2023-09-07T13:14:13;3.73;;;2.73;;
4674;SDS011;2351;50.812;12.872;2023-09-07T13:16:45;3.47;;;3.17;;
4674;SDS011;2351;50.812;12.872;2023-09-07T13:19:18;3.50;;;3.20;;
4674;SDS011;2351;50.812;12.872;2023-09-07T13:21:50;4.27;;;3.17;;
4674;SDS011;2351;50.812;12.872;2023-09-07T13:24:22;4.77;;;3.20;;
4674;SDS011;2351;50.812;12.872;2023-09-07T13:26:54;6.87;;;3.23;;
4674;SDS011;2351;50.812;12.872;2023-09-07T13:29:26;4.37;;;3.47;;
4674;SDS011;2351;50.812;12.872;2023-09-07T13:31:58;3.77;;;3.00;;
4674;SDS011;2351;50.812;12.872;2023-09-07T13:34:32;4.07;;;3.63;;
4674;SDS011;2351;50.812;12.872;2023-09-07T13:37:04;4.13;;;3.80;;
4674;SDS011;2351;50.812;12.872;2023-09-07T13:39:35;6.30;;;3.43;;
4674;SDS011;2351;50.812;12.872;2023-09-07T13:42:07;3.80;;;3.30;;
4674;SDS011;2351;50.812;12.872;2023-09-07T13:44:39;7.47;;;3.90;;
4674;SDS011;2351;50.812;12.872;2023-09-07T13:47:10;6.07;;;3.93;;
4674;SDS011;2351;50.812;12.872;2023-09-07T13:49:44;5.37;;;3.70;;
4674;SDS011;2351;50.812;12.872;2023-09-07T13:52:16;6.73;;;3.63;;
4674;SDS011;2351;50.812;12.872;2023-09-07T13:54:47;4.10;;;3.70;;
4674;SDS011;2351;50.812;12.872;2023-09-07T13:57:19;4.53;;;3.77;;
4674;SDS011;2351;50.812;12.872;2023-09-07T13:59:51;6.43;;;3.50;;
4674;SDS011;2351;50.812;12.872;2023-09-07T14:02:23;5.13;;;3.60;;
4674;SDS011;2351;50.812;12.872;2023-09-07T14:04:56;4.40;;;3.60;;
4674;SDS011;2351;50.812;12.872;2023-09-07T14:07:28;8.50;;;3.40;;
4674;SDS011;2351;50.812;12.872;2023-09-07T14:10:00;4.43;;;3.43;;
4674;SDS011;2351;50.812;12.872;2023-09-07T14:12:32;7.13;;;3.57;;
4674;SDS011;2351;50.812;12.872;2023-09-07T14:15:04;10.53;;;3.30;;
4674;SDS011;2351;50.812;12.872;2023-09-07T14:17:36;7.57;;;3.60;;
4674;SDS011;2351;50.812;12.872;2023-09-07T14:20:10;7.00;;;3.63;;
4674;SDS011;2351;50.812;12.872;2023-09-07T14:22:43;3.60;;;3.30;;
4674;SDS011;2351;50.812;12.872;2023-09-07T14:25:15;5.90;;;3.10;;
4674;SDS011;2351;50.812;12.872;2023-09-07T14:27:47;3.90;;;3.60;;
4674;SDS011;2351;50.812;12.872;2023-09-07T14:30:19;4.50;;;3.30;;
4674;SDS011;2351;50.812;12.872;2023-09-07T14:32:51;4.40;;;3.47;;
4674;SDS011;2351;50.812;12.872;2023-09-07T14:35:24;5.47;;;3.60;;
4674;SDS011;2351;50.812;12.872;2023-09-07T14:37:56;8.40;;;3.67;;
4674;SDS011;2351;50.812;12.872;2023-09-07T14:40:28;6.17;;;3.63;;
4674;SDS011;2351;50.812;12.872;2023-09-07T14:43:00;6.63;;;3.90;;
4674;SDS011;2351;50.812;12.872;2023-09-07T14:45:32;10.27;;;3.63;;
4674;SDS011;2351;50.812;12.872;2023-09-07T14:48:04;5.07;;;3.50;;
4674;SDS011;2351;50.812;12.872;2023-09-07T14:50:39;5.13;;;4.63;;
4674;SDS011;2351;50.812;12.872;2023-09-07T14:53:11;4.23;;;3.53;;
4674;SDS011;2351;50.812;12.872;2023-09-07T14:55:42;14.27;;;3.80;;
4674;SDS011;2351;50.812;12.872;2023-09-07T14:58:15;6.97;;;3.90;;
4674;SDS011;2351;50.812;12.872;2023-09-07T15:00:47;8.10;;;3.47;;
4674;SDS011;2351;50.812;12.872;2023-09-07T15:03:19;5.53;;;3.27;;
4674;SDS011;2351;50.812;12.872;2023-09-07T15:05:52;3.30;;;3.00;;
4674;SDS011;2351;50.812;12.872;2023-09-07T15:08:24;6.00;;;3.57;;
4674;SDS011;2351;50.812;12.872;2023-09-07T15:10:56;4.13;;;3.73;;
4674;SDS011;2351;50.812;12.872;2023-09-07T15:13:28;8.33;;;3.67;;
4674;SDS011;2351;50.812;12.872;2023-09-07T15:16:00;5.30;;;3.13;;
4674;SDS011;2351;50.812;12.872;2023-09-07T15:18:32;4.93;;;3.20;;
4674;SDS011;2351;50.812;12.872;2023-09-07T15:21:05;3.80;;;3.50;;
4674;SDS011;2351;50.812;12.872;2023-09-07T15:23:37;3.67;;;3.33;;